Huvudsida
METAR-TAF:

METAR-TAF

Flygplatser :

Buraydah, Saudiarabien

latitud: 26-18N, longitud: 043-46E, höjd: 648 m

Aktuellt väderrapport

Denna rapport gjordes för 45 minuter sedan, klockan 19:00 UTC
Vind 7 kt från ost/sydost
Temperatur 21°C
Fuktighet 35%
Tryck 1014 hPa
Sikt 10 km eller mer
Inga moln under 1 500 m eller inga cumulonimbus

METAR: OEGS 281900Z 11007KT CAVOK 21/05 Q1014

Tid: 22:45 (19:45 UTC)

Väderprognos

Denna rapport gjordes för 8 timmar och 45 minuter sedan, klockan 11:00 UTC
Prognos gäller från 28 kl. 12 UTC till 29 kl. 18 UTC
Vind 10 kt från syd
Sikt 10 km eller mer
Inga moln under 1 500 m eller inga cumulonimbus
Blir
från 28 kl. 18 UTC till 28 kl. 20 UTC
Vind 3 kt varierande vindriktning

TAF: OEGS 281100Z 2812/2918 18010KT CAVOK BECMG 2818/2820 VRB03KT

Aktuella väderrapporter och prognoser från 4000 flygplatser (METAR- och TAF-rapporter).

De tillgängliga stationerna syns som gula och röda prickar på kartan.

För musen över prickarna för att se namnen på stationerna.

Klicka sedan för att få väderrapporter och prognoser.

För att ändra kartan: Klicka på de gröna knapparna med ett svart kors på för att zooma in; den gröna knappen med ett streck på för att zooma ut; eller på de gröna pilarna för angränsande kartor.


METAR-TAF: